Time;durP1;ratioP1;P1;durP2;ratioP2;P2;SDS_P1;SDS_P2;PMS_P1;PMS_P2;Temp;Humidity;BMP_temperature;BMP_pressure;BME280_temperature;BME280_humidity;BME280_pressure;Samples;Min_cycle;Max_cycle;Signal;HPM_P1;HPM_P2
2024/04/07 00:01:44;;;;;;;1.77;1.10;;;12.40;99.90;;;;;;5069553;28;20244;-66
2024/04/07 00:04:10;;;;;;;1.77;1.60;;;12.40;99.90;;;;;;5061716;28;20166;-66
2024/04/07 00:06:37;;;;;;;1.30;0.90;;;12.30;99.90;;;;;;5070268;28;20186;-65
2024/04/07 00:09:03;;;;;;;1.23;0.83;;;12.30;99.90;;;;;;5070481;28;20293;-67
2024/04/07 00:11:29;;;;;;;1.17;0.90;;;12.30;99.90;;;;;;5083505;28;20659;-67
2024/04/07 00:13:55;;;;;;;2.43;1.60;;;12.30;99.90;;;;;;5077688;28;20596;-68
2024/04/07 00:16:20;;;;;;;3.23;1.00;;;12.30;99.90;;;;;;5069678;28;20202;-67
2024/04/07 00:18:47;;;;;;;2.60;0.93;;;12.30;99.90;;;;;;5069635;28;20202;-67
2024/04/07 00:21:12;;;;;;;1.23;1.00;;;12.30;99.90;;;;;;5068991;28;20182;-66
2024/04/07 00:23:38;;;;;;;1.70;1.07;;;12.30;99.90;;;;;;5069337;28;20183;-67
2024/04/07 00:26:04;;;;;;;2.03;1.17;;;12.20;99.90;;;;;;5072177;28;20182;-66
2024/04/07 00:28:30;;;;;;;0.97;0.80;;;12.20;99.90;;;;;;5075227;28;20582;-67
2024/04/07 00:30:56;;;;;;;3.63;1.60;;;12.10;99.90;;;;;;5068739;28;20190;-68
2024/04/07 00:33:21;;;;;;;1.30;0.70;;;12.10;99.90;;;;;;5076253;28;20765;-67
2024/04/07 00:35:56;;;;;;;0.50;0.40;;;12.00;99.90;;;;;;5069180;28;20662;-68
2024/04/07 00:38:22;;;;;;;1.20;0.63;;;11.90;99.90;;;;;;5067443;28;20206;-68
2024/04/07 00:40:53;;;;;;;2.80;1.40;;;11.90;99.90;;;;;;5068618;28;20186;-67
2024/04/07 00:43:23;;;;;;;1.20;0.80;;;11.90;99.90;;;;;;5069141;28;20281;-68
2024/04/07 00:45:49;;;;;;;1.80;0.90;;;11.90;99.90;;;;;;5069126;28;20189;-66
2024/04/07 00:48:17;;;;;;;0.83;0.73;;;11.90;99.90;;;;;;5068314;28;20230;-67
2024/04/07 00:50:47;;;;;;;0.70;0.60;;;11.90;99.90;;;;;;5068577;28;20194;-67
2024/04/07 00:53:16;;;;;;;1.07;0.80;;;11.80;99.90;;;;;;5060104;28;20192;-66
2024/04/07 00:55:43;;;;;;;0.83;0.70;;;11.80;99.90;;;;;;5068910;28;20789;-67
2024/04/07 00:58:13;;;;;;;3.63;1.23;;;11.80;99.90;;;;;;5060656;28;20281;-67
2024/04/07 01:00:42;;;;;;;1.50;1.00;;;11.80;99.90;;;;;;5067413;28;20229;-67
2024/04/07 01:03:08;;;;;;;1.63;1.27;;;11.80;99.90;;;;;;5068879;28;20182;-67
2024/04/07 01:05:44;;;;;;;1.77;0.80;;;11.70;99.90;;;;;;5068773;28;20312;-67
2024/04/07 01:08:11;;;;;;;1.50;0.80;;;11.70;99.90;;;;;;5076972;28;20357;-67
2024/04/07 01:10:38;;;;;;;1.60;0.90;;;11.80;99.90;;;;;;5069289;28;20217;-67
2024/04/07 01:13:06;;;;;;;2.13;1.30;;;11.80;99.90;;;;;;5072634;28;20183;-67
2024/04/07 01:15:35;;;;;;;2.57;1.27;;;11.80;99.90;;;;;;5079205;28;20190;-66
2024/04/07 01:18:01;;;;;;;2.83;1.03;;;11.70;99.90;;;;;;5073656;28;20215;-67
2024/04/07 01:20:28;;;;;;;0.80;0.60;;;11.70;99.90;;;;;;5072084;28;20554;-66
2024/04/07 01:22:54;;;;;;;1.57;0.90;;;11.70;99.90;;;;;;5072347;28;20182;-66
2024/04/07 01:25:20;;;;;;;0.60;0.60;;;11.60;99.90;;;;;;5072411;28;20308;-67
2024/04/07 01:27:59;;;;;;;4.47;1.03;;;11.70;99.90;;;;;;5072033;28;20595;-67
2024/04/07 01:30:25;;;;;;;1.30;1.00;;;11.60;99.90;;;;;;5071762;28;20194;-67
2024/04/07 01:32:51;;;;;;;1.90;0.70;;;11.60;99.90;;;;;;5072076;28;20213;-67
2024/04/07 01:35:16;;;;;;;1.37;1.10;;;11.60;99.90;;;;;;5070720;28;20240;-68
2024/04/07 01:37:42;;;;;;;0.93;0.63;;;11.60;99.90;;;;;;5072062;28;20210;-67
2024/04/07 01:40:09;;;;;;;1.00;0.77;;;11.70;99.90;;;;;;5071615;28;20230;-67
2024/04/07 01:42:36;;;;;;;1.70;1.17;;;11.70;99.90;;;;;;5071975;28;20197;-67
2024/04/07 01:45:03;;;;;;;1.00;0.70;;;11.80;99.90;;;;;;5070734;28;20598;-66
2024/04/07 01:47:29;;;;;;;2.63;0.97;;;11.80;99.90;;;;;;5071934;28;20773;-67
2024/04/07 01:49:54;;;;;;;1.03;0.90;;;11.90;99.90;;;;;;5071471;28;20642;-67
2024/04/07 01:52:20;;;;;;;1.73;1.40;;;12.00;99.90;;;;;;5072121;28;20182;-66
2024/04/07 01:54:45;;;;;;;1.67;1.20;;;12.00;99.90;;;;;;5071624;28;20193;-67
2024/04/07 01:57:12;;;;;;;2.23;0.90;;;12.00;99.90;;;;;;5071846;28;20198;-67
2024/04/07 01:59:37;;;;;;;1.50;1.00;;;12.10;99.90;;;;;;5071607;28;20213;-67
2024/04/07 02:02:03;;;;;;;1.80;0.97;;;12.10;99.90;;;;;;5071831;28;20233;-67
2024/04/07 02:04:28;;;;;;;1.03;0.60;;;12.00;99.90;;;;;;5071739;28;20187;-67
2024/04/07 02:06:55;;;;;;;1.60;0.80;;;12.10;99.90;;;;;;5071296;28;20193;-66
2024/04/07 02:09:20;;;;;;;1.27;0.90;;;12.10;99.90;;;;;;5076123;28;20177;-67
2024/04/07 02:11:47;;;;;;;2.17;0.77;;;12.10;99.90;;;;;;5074879;28;20198;-66
2024/04/07 02:14:12;;;;;;;0.53;0.50;;;12.20;99.90;;;;;;5071629;28;20191;-67
2024/04/07 02:16:38;;;;;;;0.93;0.60;;;12.20;99.90;;;;;;5079765;28;20717;-67
2024/04/07 02:19:04;;;;;;;1.53;0.90;;;12.20;99.90;;;;;;5073492;28;20841;-67
2024/04/07 02:21:29;;;;;;;1.20;0.70;;;12.10;99.90;;;;;;5076880;28;20263;-67
2024/04/07 02:23:55;;;;;;;0.83;0.50;;;12.00;99.90;;;;;;5070457;28;20237;-66
2024/04/07 02:26:21;;;;;;;0.97;0.67;;;12.00;99.90;;;;;;5071313;28;20190;-67
2024/04/07 02:28:47;;;;;;;0.90;0.60;;;12.00;99.90;;;;;;5070935;28;20214;-67
2024/04/07 02:31:12;;;;;;;0.63;0.60;;;12.00;99.90;;;;;;5070768;28;20197;-67
2024/04/07 02:33:39;;;;;;;1.23;0.77;;;12.00;99.90;;;;;;5071165;28;20689;-67
2024/04/07 02:36:06;;;;;;;3.20;1.00;;;11.90;99.90;;;;;;5069512;28;20585;-66
2024/04/07 02:38:31;;;;;;;3.03;0.70;;;11.90;99.90;;;;;;5071095;28;20233;-67
2024/04/07 02:40:57;;;;;;;1.07;0.60;;;11.80;99.90;;;;;;5070317;28;20650;-67
2024/04/07 02:43:23;;;;;;;0.70;0.60;;;11.80;99.90;;;;;;5070927;28;20197;-67
2024/04/07 02:48:32;;;;;;;0.30;0.30;;;11.80;99.90;;;;;;5071077;28;20221;-67
2024/04/07 02:50:58;;;;;;;1.30;0.47;;;11.80;99.90;;;;;;5070388;28;20194;-67
2024/04/07 02:53:24;;;;;;;1.70;0.90;;;11.80;99.90;;;;;;5070907;28;20578;-67
2024/04/07 02:55:50;;;;;;;1.20;0.63;;;11.80;99.90;;;;;;5070371;28;20199;-67
2024/04/07 02:58:15;;;;;;;1.23;0.83;;;11.80;99.90;;;;;;5070616;28;20232;-67
2024/04/07 03:00:41;;;;;;;0.50;0.50;;;11.70;99.90;;;;;;5070367;28;20271;-67
2024/04/07 03:03:06;;;;;;;0.80;0.70;;;11.70;99.90;;;;;;5070550;28;20183;-67
2024/04/07 03:05:32;;;;;;;0.70;0.40;;;11.70;99.90;;;;;;5070657;28;20209;-66
2024/04/07 03:07:57;;;;;;;0.40;0.30;;;11.60;99.90;;;;;;5069083;28;20206;-67
2024/04/07 03:10:23;;;;;;;0.97;0.40;;;11.50;99.90;;;;;;5070204;28;20198;-67
2024/04/07 03:12:48;;;;;;;1.23;0.50;;;11.60;99.90;;;;;;5079100;28;20186;-67
2024/04/07 03:15:14;;;;;;;0.80;0.53;;;11.50;99.90;;;;;;5070635;28;20241;-67
2024/04/07 03:17:39;;;;;;;0.60;0.50;;;11.40;99.90;;;;;;5070662;28;20202;-67
2024/04/07 03:20:07;;;;;;;0.50;0.50;;;11.30;99.90;;;;;;5073101;28;20240;-67
2024/04/07 03:22:32;;;;;;;0.80;0.77;;;11.40;99.90;;;;;;5075676;28;20280;-67
2024/04/07 03:24:58;;;;;;;1.70;0.60;;;11.40;99.90;;;;;;5070259;28;20317;-68
2024/04/07 03:27:23;;;;;;;1.67;0.90;;;11.40;99.90;;;;;;5075755;28;20320;-67
2024/04/07 03:29:49;;;;;;;0.43;0.40;;;11.30;99.90;;;;;;5072708;28;20746;-67
2024/04/07 03:32:15;;;;;;;0.80;0.30;;;11.30;99.90;;;;;;5070356;28;20179;-67
2024/04/07 03:34:41;;;;;;;0.63;0.40;;;11.40;99.90;;;;;;5069902;28;20193;-67
2024/04/07 03:37:07;;;;;;;0.37;0.30;;;11.30;99.90;;;;;;5070024;28;20210;-66
2024/04/07 03:39:33;;;;;;;0.67;0.67;;;11.30;99.90;;;;;;5069471;28;20185;-66
2024/04/07 03:41:59;;;;;;;0.63;0.60;;;11.30;99.90;;;;;;5070017;28;20186;-66
2024/04/07 03:44:26;;;;;;;0.40;0.30;;;11.30;99.90;;;;;;5070023;28;20531;-67
2024/04/07 03:46:52;;;;;;;0.50;0.50;;;11.30;99.90;;;;;;5069738;28;20186;-66
2024/04/07 03:49:17;;;;;;;0.43;0.30;;;11.30;99.90;;;;;;5069337;28;20657;-66
2024/04/07 03:51:43;;;;;;;0.53;0.40;;;11.30;99.90;;;;;;5069914;28;20193;-67
2024/04/07 03:54:08;;;;;;;0.73;0.50;;;11.20;99.90;;;;;;5069650;28;20182;-66
2024/04/07 03:56:34;;;;;;;0.50;0.50;;;11.20;99.90;;;;;;5069767;28;20205;-67
2024/04/07 03:58:59;;;;;;;0.30;0.30;;;11.10;99.90;;;;;;5069681;28;20206;-66
2024/04/07 04:01:26;;;;;;;0.53;0.50;;;11.10;99.90;;;;;;5069785;28;20225;-67
2024/04/07 04:03:51;;;;;;;0.60;0.53;;;11.10;99.90;;;;;;5076951;28;20190;-67
2024/04/07 04:06:17;;;;;;;0.50;0.43;;;11.10;99.90;;;;;;5069656;28;20193;-67
2024/04/07 04:08:44;;;;;;;2.10;1.13;;;11.20;99.90;;;;;;5069592;28;20206;-67
2024/04/07 04:11:11;;;;;;;0.67;0.60;;;11.20;99.90;;;;;;5077769;28;20186;-67
2024/04/07 04:13:37;;;;;;;1.53;0.60;;;11.20;99.90;;;;;;5069653;28;20645;-67
2024/04/07 04:16:03;;;;;;;1.80;0.50;;;11.20;99.90;;;;;;5069611;28;20293;-67
2024/04/07 04:18:28;;;;;;;0.40;0.40;;;11.10;99.90;;;;;;5069486;28;20202;-67
2024/04/07 04:20:54;;;;;;;0.93;0.50;;;11.10;99.90;;;;;;5069342;28;20257;-66
2024/04/07 04:23:20;;;;;;;0.37;0.30;;;11.20;99.90;;;;;;5078053;28;20178;-66
2024/04/07 04:25:55;;;;;;;0.30;0.30;;;11.20;99.90;;;;;;5069464;28;20193;-67
2024/04/07 04:28:21;;;;;;;0.20;0.20;;;11.30;99.90;;;;;;5069462;28;20216;-67
2024/04/07 04:30:59;;;;;;;0.30;0.30;;;11.40;99.90;;;;;;5068927;28;20676;-67
2024/04/07 04:33:27;;;;;;;0.47;0.33;;;11.50;99.90;;;;;;5069597;28;20680;-67
2024/04/07 04:35:52;;;;;;;1.87;1.07;;;11.60;99.90;;;;;;5069287;28;20198;-67
2024/04/07 04:38:18;;;;;;;0.40;0.40;;;11.70;99.90;;;;;;5069157;28;20259;-67
2024/04/07 04:40:54;;;;;;;0.43;0.33;;;11.70;99.90;;;;;;5068854;28;20654;-67
2024/04/07 04:43:21;;;;;;;0.17;0.17;;;11.80;99.90;;;;;;5062184;28;20209;-67
2024/04/07 04:46:01;;;;;;;0.43;0.20;;;11.90;99.90;;;;;;5070800;28;20247;-67
2024/04/07 04:48:27;;;;;;;0.40;0.30;;;12.10;99.90;;;;;;5072967;28;20205;-67
2024/04/07 04:50:55;;;;;;;1.80;0.70;;;12.20;99.90;;;;;;5072426;28;20218;-67
2024/04/07 04:53:21;;;;;;;1.13;0.40;;;12.40;99.90;;;;;;5072833;28;20208;-68
2024/04/07 04:55:46;;;;;;;0.90;0.50;;;12.50;99.90;;;;;;5072735;28;20277;-67
2024/04/07 04:58:12;;;;;;;2.20;0.67;;;12.60;99.90;;;;;;5072815;28;20234;-67
2024/04/07 05:00:37;;;;;;;0.20;0.20;;;12.70;99.90;;;;;;5072514;28;20194;-67
2024/04/07 05:03:03;;;;;;;1.00;0.47;;;12.80;99.90;;;;;;5078865;28;20589;-67
2024/04/07 05:05:29;;;;;;;0.30;0.30;;;12.90;99.90;;;;;;5070897;28;20198;-67
2024/04/07 05:07:55;;;;;;;0.70;0.50;;;13.00;99.90;;;;;;5072026;28;20214;-67
2024/04/07 05:10:21;;;;;;;1.03;0.60;;;13.20;99.90;;;;;;5071681;28;20574;-67
2024/04/07 05:12:46;;;;;;;0.30;0.30;;;13.30;99.90;;;;;;5072348;28;20200;-68
2024/04/07 05:15:12;;;;;;;1.43;0.30;;;13.50;99.90;;;;;;5072050;28;20202;-67
2024/04/07 05:17:38;;;;;;;0.20;0.20;;;13.50;99.90;;;;;;5072206;28;20199;-67
2024/04/07 05:20:04;;;;;;;0.40;0.40;;;13.60;99.90;;;;;;5071994;28;20273;-67
2024/04/07 05:22:30;;;;;;;0.17;0.17;;;13.70;99.90;;;;;;5080734;28;20178;-67
2024/04/07 05:24:55;;;;;;;1.00;0.30;;;13.70;99.90;;;;;;5071824;28;20275;-68
2024/04/07 05:27:21;;;;;;;0.20;0.20;;;13.70;99.90;;;;;;5072115;28;20208;-67
2024/04/07 05:29:48;;;;;;;0.23;0.23;;;13.80;99.90;;;;;;5071320;28;20182;-68
2024/04/07 05:32:14;;;;;;;1.47;0.90;;;13.80;99.90;;;;;;5075771;28;20170;-67
2024/04/07 05:34:39;;;;;;;0.20;0.20;;;13.80;99.90;;;;;;5076317;28;20551;-67
2024/04/07 05:37:06;;;;;;;0.40;0.30;;;13.90;99.90;;;;;;5071681;28;20245;-67
2024/04/07 05:39:35;;;;;;;0.67;0.50;;;13.90;99.90;;;;;;5071245;28;20190;-67
2024/04/07 05:42:00;;;;;;;0.87;0.30;;;13.90;99.90;;;;;;5071676;28;20206;-67
2024/04/07 05:44:26;;;;;;;0.47;0.30;;;14.00;99.90;;;;;;5072251;28;20178;-67
2024/04/07 05:46:52;;;;;;;0.37;0.30;;;14.10;99.90;;;;;;5071724;28;20536;-67
2024/04/07 05:49:18;;;;;;;0.73;0.73;;;14.20;99.90;;;;;;5071518;28;20178;-67
2024/04/07 05:51:44;;;;;;;0.40;0.20;;;14.30;99.90;;;;;;5071521;28;20251;-67
2024/04/07 05:54:09;;;;;;;0.43;0.33;;;14.30;99.90;;;;;;5070278;28;20286;-68
2024/04/07 05:56:35;;;;;;;1.27;0.90;;;14.40;99.90;;;;;;5060972;28;20234;-68
2024/04/07 05:59:00;;;;;;;0.40;0.30;;;14.50;99.90;;;;;;5070663;28;20214;-68
2024/04/07 06:01:26;;;;;;;0.30;0.30;;;14.70;99.90;;;;;;5071515;28;20186;-67
2024/04/07 06:03:51;;;;;;;1.20;0.73;;;14.80;99.90;;;;;;5080067;28;20193;-67
2024/04/07 06:06:17;;;;;;;1.70;0.60;;;15.10;99.90;;;;;;5071675;28;20185;-67
2024/04/07 06:08:43;;;;;;;0.40;0.37;;;15.30;99.90;;;;;;5071437;28;20233;-68
2024/04/07 06:11:08;;;;;;;0.40;0.40;;;15.50;99.90;;;;;;5070943;28;20186;-67
2024/04/07 06:13:34;;;;;;;0.70;0.43;;;15.60;99.90;;;;;;5071175;28;20676;-67
2024/04/07 06:15:59;;;;;;;1.83;0.93;;;15.70;99.90;;;;;;5071083;28;20687;-65
2024/04/07 06:18:25;;;;;;;0.30;0.30;;;15.80;99.90;;;;;;5071069;28;20471;-65
2024/04/07 06:20:53;;;;;;;0.30;0.30;;;15.90;99.90;;;;;;5071380;28;20194;-66
2024/04/07 06:23:19;;;;;;;1.47;0.73;;;16.00;99.90;;;;;;5071243;28;20315;-66
2024/04/07 06:25:46;;;;;;;1.10;0.60;;;16.20;99.90;;;;;;5070792;28;20186;-64
2024/04/07 06:28:12;;;;;;;0.40;0.40;;;16.40;99.90;;;;;;5070740;28;20199;-66
2024/04/07 06:30:38;;;;;;;1.17;0.50;;;16.40;99.90;;;;;;5070408;28;20301;-65
2024/04/07 06:33:04;;;;;;;1.03;0.73;;;16.50;99.90;;;;;;5069592;28;20190;-64
2024/04/07 06:35:30;;;;;;;1.77;1.10;;;16.50;99.90;;;;;;5070898;28;20621;-64
2024/04/07 06:37:56;;;;;;;2.70;1.50;;;16.60;99.90;;;;;;5070285;28;20252;-64
2024/04/07 06:40:21;;;;;;;1.70;0.40;;;16.60;99.90;;;;;;5070070;28;20274;-65
2024/04/07 06:42:47;;;;;;;2.30;0.60;;;16.70;99.90;;;;;;5069151;28;20202;-65
2024/04/07 06:45:13;;;;;;;0.50;0.30;;;16.70;99.90;;;;;;5066145;28;20553;-67
2024/04/07 06:47:38;;;;;;;1.30;0.50;;;16.80;99.90;;;;;;5075110;28;20230;-67
2024/04/07 06:50:05;;;;;;;2.33;0.50;;;16.80;99.90;;;;;;5069897;28;20632;-68
2024/04/07 06:52:30;;;;;;;2.23;0.87;;;16.90;99.90;;;;;;5074700;28;20569;-67
2024/04/07 06:54:56;;;;;;;1.77;0.50;;;16.90;99.90;;;;;;5072343;28;20186;-64
2024/04/07 06:57:22;;;;;;;0.80;0.40;;;17.00;99.90;;;;;;5074795;28;20284;-66
2024/04/07 06:59:50;;;;;;;2.00;0.40;;;17.10;99.90;;;;;;5073290;28;20213;-65
2024/04/07 07:02:16;;;;;;;0.33;0.33;;;17.20;99.90;;;;;;5066325;28;20637;-64
2024/04/07 07:04:41;;;;;;;4.37;0.73;;;17.20;99.90;;;;;;5073150;28;20190;-64
2024/04/07 07:07:07;;;;;;;0.97;0.30;;;17.30;99.90;;;;;;5069537;28;20214;-64
2024/04/07 07:09:33;;;;;;;2.00;0.80;;;17.30;99.90;;;;;;5068892;28;20197;-66
2024/04/07 07:11:58;;;;;;;0.40;0.30;;;17.40;99.90;;;;;;5069805;28;20186;-67
2024/04/07 07:14:25;;;;;;;0.47;0.30;;;17.40;99.90;;;;;;5077259;28;20619;-65
2024/04/07 07:16:50;;;;;;;0.73;0.40;;;17.50;99.90;;;;;;5069637;28;20214;-65
2024/04/07 07:19:17;;;;;;;0.50;0.30;;;17.60;99.90;;;;;;5077822;28;20265;-66
2024/04/07 07:21:42;;;;;;;0.93;0.63;;;17.70;99.90;;;;;;5069836;28;20178;-66
2024/04/07 07:24:08;;;;;;;1.37;0.30;;;17.70;99.90;;;;;;5072341;28;20186;-66
2024/04/07 07:26:34;;;;;;;1.13;0.50;;;17.80;99.90;;;;;;5075237;28;20198;-65
2024/04/07 07:28:59;;;;;;;1.70;0.40;;;17.80;99.90;;;;;;5068111;28;20194;-66
2024/04/07 07:31:25;;;;;;;1.30;0.40;;;17.90;99.90;;;;;;5069155;28;20554;-69
2024/04/07 07:33:51;;;;;;;1.53;0.30;;;17.90;99.90;;;;;;5069687;28;20602;-67
2024/04/07 07:36:16;;;;;;;2.17;0.53;;;17.80;99.90;;;;;;5069734;28;20206;-64
2024/04/07 07:38:42;;;;;;;3.10;0.50;;;17.80;99.90;;;;;;5069490;28;20205;-65
2024/04/07 07:41:07;;;;;;;1.37;0.50;;;17.80;99.90;;;;;;5068692;28;20265;-67
2024/04/07 07:43:33;;;;;;;0.37;0.27;;;17.80;99.90;;;;;;5069693;28;20259;-66
2024/04/07 07:45:58;;;;;;;1.60;0.43;;;17.80;99.90;;;;;;5069218;28;20600;-64
2024/04/07 07:48:26;;;;;;;0.70;0.40;;;17.70;99.90;;;;;;5069426;28;20241;-67
2024/04/07 07:50:52;;;;;;;0.40;0.40;;;17.70;99.90;;;;;;5067581;28;20574;-65
2024/04/07 07:53:17;;;;;;;0.77;0.47;;;17.70;99.90;;;;;;5069345;28;20190;-66
2024/04/07 07:55:43;;;;;;;0.47;0.37;;;17.70;99.90;;;;;;5077464;28;20225;-64
2024/04/07 07:58:09;;;;;;;0.63;0.50;;;17.70;99.90;;;;;;5069053;28;20693;-64
2024/04/07 08:00:34;;;;;;;0.47;0.30;;;17.70;99.90;;;;;;5068831;28;20175;-63
2024/04/07 08:03:00;;;;;;;0.33;0.20;;;17.80;99.90;;;;;;5069068;28;20206;-64
2024/04/07 08:05:25;;;;;;;2.17;0.60;;;17.90;99.90;;;;;;5069341;28;20187;-68
2024/04/07 08:07:51;;;;;;;1.07;0.53;;;18.00;99.90;;;;;;5069036;28;20246;-64
2024/04/07 08:10:17;;;;;;;1.20;0.60;;;18.00;99.90;;;;;;5068615;28;20178;-67
2024/04/07 08:12:43;;;;;;;2.80;0.40;;;18.10;99.90;;;;;;5069289;28;20673;-64
2024/04/07 08:15:11;;;;;;;0.43;0.40;;;18.20;99.90;;;;;;5079325;28;20201;-63
2024/04/07 08:17:37;;;;;;;4.77;1.77;;;18.20;99.90;;;;;;5074716;28;20194;-64
2024/04/07 08:20:03;;;;;;;2.30;0.80;;;18.30;99.90;;;;;;5073326;28;20194;-65
2024/04/07 08:22:29;;;;;;;0.77;0.30;;;18.50;99.90;;;;;;5061521;28;20645;-63
2024/04/07 08:24:54;;;;;;;0.70;0.60;;;18.70;99.90;;;;;;5074603;28;20193;-65
2024/04/07 08:27:21;;;;;;;0.67;0.53;;;18.90;99.90;;;;;;5081046;28;20266;-66
2024/04/07 08:29:47;;;;;;;0.90;0.60;;;19.00;99.90;;;;;;5080667;28;20186;-65
2024/04/07 08:32:13;;;;;;;1.73;0.50;;;19.30;99.90;;;;;;5081749;28;20216;-64
2024/04/07 08:34:39;;;;;;;0.67;0.47;;;19.40;99.90;;;;;;5079567;28;20194;-66
2024/04/07 08:37:05;;;;;;;1.00;0.50;;;19.50;99.90;;;;;;5081666;28;20210;-64
2024/04/07 08:39:30;;;;;;;0.20;0.20;;;19.70;99.90;;;;;;5081336;28;20200;-66
2024/04/07 08:41:59;;;;;;;0.30;0.30;;;19.80;99.90;;;;;;5071652;28;20823;-66
2024/04/07 08:44:27;;;;;;;0.23;0.20;;;19.80;99.90;;;;;;5080327;28;20189;-68
2024/04/07 08:46:54;;;;;;;1.00;0.47;;;19.70;99.90;;;;;;5068306;28;20647;-68
2024/04/07 08:49:20;;;;;;;0.53;0.40;;;19.80;99.90;;;;;;5068304;28;20179;-64
2024/04/07 08:51:48;;;;;;;0.80;0.30;;;19.90;99.90;;;;;;5067598;28;20192;-65
2024/04/07 08:54:15;;;;;;;0.87;0.43;;;19.90;99.90;;;;;;5068645;28;20245;-65
2024/04/07 08:56:42;;;;;;;0.53;0.37;;;19.90;99.90;;;;;;5068640;28;20309;-64
2024/04/07 08:59:10;;;;;;;0.87;0.50;;;19.80;99.90;;;;;;5068145;28;20345;-65
2024/04/07 09:01:37;;;;;;;0.47;0.40;;;20.00;99.90;;;;;;5069005;28;20183;-65
2024/04/07 09:04:03;;;;;;;2.03;0.50;;;20.10;99.90;;;;;;5068439;28;20205;-69
2024/04/07 09:06:30;;;;;;;1.23;0.70;;;20.30;99.90;;;;;;5068571;28;20195;-68
2024/04/07 09:08:57;;;;;;;1.37;0.50;;;20.40;99.90;;;;;;5068489;28;20664;-65
2024/04/07 09:11:23;;;;;;;0.80;0.53;;;20.40;99.90;;;;;;5068395;28;20641;-64
2024/04/07 09:13:49;;;;;;;0.60;0.33;;;20.50;99.90;;;;;;5069011;28;20219;-69
2024/04/07 09:16:15;;;;;;;0.30;0.30;;;20.40;99.90;;;;;;5060228;28;20207;-68
2024/04/07 09:18:41;;;;;;;1.43;0.30;;;20.40;99.90;;;;;;5068809;28;20244;-68
2024/04/07 09:21:15;;;;;;;0.63;0.63;;;20.40;99.90;;;;;;5067948;28;20182;-65
2024/04/07 09:23:40;;;;;;;0.30;0.30;;;20.50;99.90;;;;;;5068577;28;20179;-65
2024/04/07 09:26:07;;;;;;;0.50;0.50;;;20.60;99.90;;;;;;5068205;28;20289;-65
2024/04/07 09:28:32;;;;;;;0.10;0.10;;;20.90;99.90;;;;;;5068403;28;20252;-65
2024/04/07 09:30:58;;;;;;;0.47;0.27;;;21.00;99.90;;;;;;5076374;28;20190;-65
2024/04/07 09:33:23;;;;;;;0.70;0.20;;;21.10;99.90;;;;;;5071841;28;20688;-63
2024/04/07 09:35:49;;;;;;;0.20;0.10;;;21.20;99.90;;;;;;5072006;28;20659;-67
2024/04/07 09:38:14;;;;;;;0.20;0.20;;;21.30;99.90;;;;;;5071980;28;20232;-65
2024/04/07 09:40:46;;;;;;;0.77;0.20;;;21.40;99.90;;;;;;5071247;28;20584;-65
2024/04/07 09:43:13;;;;;;;0.10;0.10;;;21.60;99.90;;;;;;5071799;28;20263;-65
2024/04/07 09:45:44;;;;;;;1.47;0.50;;;21.80;99.90;;;;;;5071699;28;20265;-65
2024/04/07 09:48:15;;;;;;;0.10;0.10;;;21.80;99.90;;;;;;5070511;28;20214;-64
2024/04/07 09:50:43;;;;;;;0.10;0.10;;;21.70;99.90;;;;;;5078443;28;20252;-64
2024/04/07 09:53:19;;;;;;;0.30;0.20;;;21.80;99.90;;;;;;5072331;28;20686;-64
2024/04/07 09:55:52;;;;;;;0.20;0.10;;;22.20;99.90;;;;;;5071328;28;20197;-65
2024/04/07 09:58:23;;;;;;;0.30;0.30;;;23.00;99.90;;;;;;5063525;28;20201;-68
2024/04/07 10:00:48;;;;;;;0.30;0.20;;;23.50;99.90;;;;;;5070874;28;20197;-65
2024/04/07 10:03:15;;;;;;;0.20;0.20;;;23.90;99.90;;;;;;5074681;28;20186;-64
2024/04/07 10:05:40;;;;;;;2.00;0.20;;;24.30;99.90;;;;;;5075922;28;20245;-65
2024/04/07 10:08:07;;;;;;;0.67;0.37;;;24.40;99.90;;;;;;5070883;28;20689;-68
2024/04/07 10:10:32;;;;;;;0.43;0.30;;;24.70;99.90;;;;;;5070671;28;20174;-66
2024/04/07 10:13:08;;;;;;;0.20;0.20;;;24.50;99.90;;;;;;5068670;28;20684;-69
2024/04/07 10:15:35;;;;;;;3.83;0.80;;;24.30;99.90;;;;;;5075484;28;20257;-70
2024/04/07 10:18:10;;;;;;;0.20;0.20;;;24.10;99.90;;;;;;5071115;28;20211;-67
2024/04/07 10:20:37;;;;;;;0.30;0.20;;;23.90;99.90;;;;;;5075995;28;20198;-67
2024/04/07 10:23:03;;;;;;;0.30;0.27;;;23.70;99.90;;;;;;5070899;28;20189;-67
2024/04/07 10:25:35;;;;;;;0.70;0.20;;;23.80;99.90;;;;;;5070600;28;20685;-65
2024/04/07 10:28:01;;;;;;;0.23;0.20;;;23.60;99.90;;;;;;5070581;28;20237;-67
2024/04/07 10:30:27;;;;;;;1.90;0.30;;;23.50;99.90;;;;;;5068862;28;20194;-66
2024/04/07 10:32:53;;;;;;;0.90;0.20;;;23.50;99.90;;;;;;5070951;28;20227;-68
2024/04/07 10:35:22;;;;;;;0.47;0.27;;;23.50;99.90;;;;;;5070703;28;20657;-69
2024/04/07 10:37:50;;;;;;;0.10;0.10;;;23.80;99.90;;;;;;5070542;28;20198;-65
2024/04/07 10:40:17;;;;;;;0.57;0.20;;;23.70;99.90;;;;;;5060290;28;20182;-68
2024/04/07 10:42:43;;;;;;;2.27;0.20;;;23.70;99.90;;;;;;5070085;28;20220;-68
2024/04/07 10:45:11;;;;;;;0.20;0.20;;;23.70;99.90;;;;;;5069836;28;20183;-67
2024/04/07 10:47:37;;;;;;;0.73;0.40;;;23.60;99.90;;;;;;5070512;28;20198;-66
2024/04/07 10:50:04;;;;;;;0.30;0.30;;;23.70;99.90;;;;;;5070085;28;20179;-67
2024/04/07 10:52:31;;;;;;;0.30;0.20;;;23.80;99.90;;;;;;5070286;28;20182;-67
2024/04/07 10:54:57;;;;;;;1.30;0.57;;;24.00;99.90;;;;;;5069997;28;20209;-68
2024/04/07 10:57:23;;;;;;;0.43;0.30;;;23.80;99.90;;;;;;5069875;28;20217;-68
2024/04/07 10:59:49;;;;;;;0.40;0.20;;;23.90;99.90;;;;;;5070119;28;20182;-70
2024/04/07 11:02:14;;;;;;;0.43;0.20;;;24.00;99.90;;;;;;5068678;28;20270;-71
2024/04/07 11:04:41;;;;;;;0.40;0.30;;;24.20;99.90;;;;;;5070200;28;20214;-66
2024/04/07 11:07:08;;;;;;;0.20;0.20;;;24.40;99.90;;;;;;5070042;28;20203;-67
2024/04/07 11:09:34;;;;;;;0.40;0.37;;;24.70;99.90;;;;;;5069285;28;20206;-66
2024/04/07 11:12:00;;;;;;;0.90;0.50;;;25.00;99.90;;;;;;5070216;28;20183;-67
2024/04/07 11:14:27;;;;;;;0.20;0.20;;;25.10;99.90;;;;;;5069818;28;20186;-66
2024/04/07 11:16:54;;;;;;;0.27;0.20;;;25.10;99.90;;;;;;5069392;28;20629;-67
2024/04/07 11:19:24;;;;;;;0.73;0.10;;;25.30;99.90;;;;;;5069487;28;20245;-65
2024/04/07 11:21:50;;;;;;;0.73;0.30;;;25.40;99.90;;;;;;5069858;28;20261;-65
2024/04/07 11:24:17;;;;;;;0.57;0.30;;;25.50;99.90;;;;;;5070283;28;20676;-65
2024/04/07 11:26:43;;;;;;;0.20;0.20;;;25.60;99.90;;;;;;5069857;28;20182;-67
2024/04/07 11:29:12;;;;;;;1.13;0.30;;;25.50;99.90;;;;;;5069390;28;20743;-64
2024/04/07 11:31:37;;;;;;;0.40;0.40;;;25.70;99.90;;;;;;5068501;28;20552;-66
2024/04/07 11:34:03;;;;;;;0.33;0.17;;;25.80;99.90;;;;;;5069710;28;20186;-65
2024/04/07 11:36:29;;;;;;;0.43;0.30;;;25.70;99.90;;;;;;5069483;28;20264;-65
2024/04/07 11:38:55;;;;;;;0.70;0.30;;;25.70;99.90;;;;;;5069464;28;20672;-66
2024/04/07 11:41:21;;;;;;;1.30;0.20;;;25.50;99.90;;;;;;5068914;28;20650;-65
2024/04/07 11:43:48;;;;;;;0.50;0.40;;;25.50;99.90;;;;;;5069719;28;20205;-65
2024/04/07 11:46:14;;;;;;;0.30;0.30;;;25.40;99.90;;;;;;5072550;28;20186;-65
2024/04/07 11:48:39;;;;;;;0.83;0.40;;;25.30;99.90;;;;;;5074508;28;20210;-64
2024/04/07 11:51:05;;;;;;;0.70;0.30;;;25.10;99.90;;;;;;5067834;28;20518;-65
2024/04/07 11:53:30;;;;;;;0.20;0.20;;;25.30;99.90;;;;;;5067988;28;20186;-66
2024/04/07 11:55:56;;;;;;;0.70;0.20;;;25.50;99.90;;;;;;5067436;28;20293;-67
2024/04/07 11:58:22;;;;;;;1.53;0.50;;;25.50;99.90;;;;;;5068658;28;20198;-68
2024/04/07 12:00:47;;;;;;;0.97;0.40;;;25.10;99.90;;;;;;5069346;28;20197;-68
2024/04/07 12:03:13;;;;;;;0.80;0.40;;;24.80;99.90;;;;;;5069292;28;20178;-65
2024/04/07 12:05:39;;;;;;;0.70;0.20;;;24.80;99.90;;;;;;5069209;28;20658;-65
2024/04/07 12:08:06;;;;;;;0.40;0.30;;;25.10;99.90;;;;;;5070653;28;20549;-65
2024/04/07 12:10:32;;;;;;;0.57;0.33;;;25.30;99.90;;;;;;5074994;28;20178;-67
2024/04/07 12:12:57;;;;;;;0.50;0.30;;;25.40;99.90;;;;;;5068079;28;20596;-64
2024/04/07 12:15:23;;;;;;;0.57;0.20;;;25.30;99.90;;;;;;5069000;28;20662;-65
2024/04/07 12:17:48;;;;;;;0.30;0.23;;;25.50;99.90;;;;;;5069099;28;20237;-64
2024/04/07 12:20:14;;;;;;;2.00;0.20;;;25.80;99.90;;;;;;5068665;28;20210;-66
2024/04/07 12:22:41;;;;;;;1.13;0.50;;;26.00;99.90;;;;;;5077313;28;20209;-64
2024/04/07 12:25:07;;;;;;;0.90;0.40;;;26.10;99.90;;;;;;5069223;28;20186;-65
2024/04/07 12:27:33;;;;;;;0.73;0.40;;;25.60;99.90;;;;;;5069036;28;20213;-65
2024/04/07 12:29:58;;;;;;;0.20;0.20;;;25.40;99.90;;;;;;5068613;28;20232;-65
2024/04/07 12:32:25;;;;;;;0.60;0.23;;;25.40;99.90;;;;;;5068938;28;20190;-67
2024/04/07 12:34:51;;;;;;;0.60;0.40;;;25.60;99.90;;;;;;5068829;28;20312;-66
2024/04/07 12:37:17;;;;;;;0.30;0.20;;;25.60;99.90;;;;;;5069088;28;20644;-66
2024/04/07 12:39:42;;;;;;;0.60;0.23;;;25.70;99.90;;;;;;5068747;28;20186;-66
2024/04/07 12:42:08;;;;;;;0.40;0.30;;;26.20;99.90;;;;;;5068790;28;20198;-68
2024/04/07 12:44:34;;;;;;;1.27;0.50;;;26.80;99.90;;;;;;5068838;28;20190;-64
2024/04/07 12:46:59;;;;;;;0.30;0.20;;;27.10;99.90;;;;;;5068675;28;20191;-64